Time;durP1;ratioP1;P1;durP2;ratioP2;P2;SDS_P1;SDS_P2;PMS_P1;PMS_P2;Temp;Humidity;BMP_temperature;BMP_pressure;BME280_temperature;BME280_humidity;BME280_pressure;Samples;Min_cycle;Max_cycle;Signal;HPM_P1;HPM_P2
2022/04/19 00:08:45;;;;;;;;;;;16.00;67.70;;;;;;31749386;28;20451;-35
2022/04/19 00:23:46;;;;;;;;;;;16.10;68.40;;;;;;31748448;28;19992;-36
2022/04/19 00:38:47;;;;;;;;;;;16.10;69.20;;;;;;31747742;28;19919;-35
2022/04/19 00:53:48;;;;;;;;;;;16.10;69.90;;;;;;31747492;28;19972;-35
2022/04/19 01:08:50;;;;;;;;;;;16.10;70.40;;;;;;31747603;28;19930;-35
2022/04/19 01:23:51;;;;;;;;;;;16.00;70.60;;;;;;31746253;28;19955;-35
2022/04/19 01:38:52;;;;;;;;;;;16.10;71.20;;;;;;31760693;28;19920;-36
2022/04/19 01:53:55;;;;;;;;;;;16.10;71.60;;;;;;31766531;28;19966;-35
2022/04/19 02:08:56;;;;;;;;;;;16.10;71.80;;;;;;31762861;28;19960;-35
2022/04/19 02:23:57;;;;;;;;;;;16.10;72.00;;;;;;31761919;28;19931;-35
2022/04/19 02:39:01;;;;;;;;;;;16.10;72.20;;;;;;31760201;28;20021;-35
2022/04/19 02:54:02;;;;;;;;;;;16.10;72.80;;;;;;31757658;28;20415;-37
2022/04/19 03:09:03;;;;;;;;;;;16.00;73.00;;;;;;31752600;28;19920;-35
2022/04/19 03:39:24;;;;;;;;;;;16.10;73.70;;;;;;31751413;28;19931;-35
2022/04/19 03:54:25;;;;;;;;;;;16.10;74.00;;;;;;31644643;28;20312;-44
2022/04/19 04:09:32;;;;;;;3.30;2.30;;;16.10;73.90;;;;;;31531390;28;19975;-35
2022/04/19 04:24:33;;;;;;;;;;;13.40;80.30;;;;;;31550262;28;20056;-36
2022/04/19 04:39:34;;;;;;;;;;;12.60;85.10;;;;;;31498001;28;19926;-37
2022/04/19 04:54:36;;;;;;;4.93;3.37;;;12.60;85.70;;;;;;31491154;28;19920;-34
2022/04/19 05:09:37;;;;;;;3.97;3.10;;;12.50;86.00;;;;;;31500783;28;20048;-35
2022/04/19 05:24:38;;;;;;;4.13;3.33;;;12.40;86.60;;;;;;31526184;28;20047;-36
2022/04/19 05:39:39;;;;;;;5.17;3.77;;;12.40;87.20;;;;;;31766351;28;20185;-35
2022/04/19 05:54:40;;;;;;;4.70;3.87;;;12.40;87.60;;;;;;31763166;28;20055;-35
2022/04/19 06:09:42;;;;;;;7.10;4.93;;;12.30;88.00;;;;;;31763906;28;20080;-35
2022/04/19 06:24:43;;;;;;;3.87;2.67;;;12.30;88.70;;;;;;31762842;28;20150;-34
2022/04/19 06:39:44;;;;;;;4.17;2.87;;;12.40;86.60;;;;;;31760159;28;20131;-35
2022/04/19 06:54:45;;;;;;;4.70;3.40;;;12.40;86.40;;;;;;31759025;28;20067;-35
2022/04/19 07:09:49;;;;;;;3.67;2.90;;;12.40;86.60;;;;;;31753320;28;20381;-34
2022/04/19 07:40:12;;;;;;;2.43;2.10;;;12.50;83.70;;;;;;31361323;28;20057;-35
2022/04/19 07:55:13;;;;;;;2.40;2.10;;;12.40;80.40;;;;;;31360659;28;20128;-37
2022/04/19 08:10:15;;;;;;;;;;;12.40;79.50;;;;;;31534114;28;20063;-35
2022/04/19 08:25:16;;;;;;;;;;;14.40;75.70;;;;;;31746032;28;19927;-35
2022/04/19 08:40:18;;;;;;;1.57;1.30;;;15.00;73.70;;;;;;31749796;28;20435;-36
2022/04/19 09:10:39;;;;;;;;;;;15.40;72.10;;;;;;31504664;28;19975;-35
2022/04/19 09:25:41;;;;;;;;;;;15.80;71.20;;;;;;31528475;28;19925;-35
2022/04/19 09:40:42;;;;;;;;;;;15.90;70.50;;;;;;31531079;28;20137;-35
2022/04/19 09:55:50;;;;;;;;;;;15.90;70.20;;;;;;31513083;28;20007;-35
2022/04/19 10:10:52;;;;;;;;;;;16.00;70.80;;;;;;31512887;28;19963;-35
2022/04/19 10:25:53;;;;;;;;;;;16.00;70.00;;;;;;31505140;28;20396;-35
2022/04/19 10:40:55;;;;;;;;;;;16.10;69.30;;;;;;31524184;28;19920;-36
2022/04/19 10:55:56;;;;;;;;;;;16.30;69.30;;;;;;31504749;28;20297;-35
2022/04/19 11:10:58;;;;;;;;;;;16.20;69.20;;;;;;31488972;28;20331;-36
2022/04/19 11:26:01;;;;;;;;;;;16.30;68.70;;;;;;31534140;28;19920;-36
2022/04/19 11:56:22;;;;;;;;;;;16.60;67.90;;;;;;31498387;28;20296;-35
2022/04/19 12:11:23;;;;;;;;;;;16.60;68.10;;;;;;31502375;28;19921;-35
2022/04/19 12:26:25;;;;;;;;;;;16.60;67.90;;;;;;31521470;28;20342;-35
2022/04/19 12:41:34;;;;;;;;;;;16.80;68.20;;;;;;31556979;28;21483;-34
2022/04/19 12:56:35;;;;;;;;;;;16.70;68.10;;;;;;31603250;28;20366;-35
2022/04/19 13:26:56;;;;;;;;;;;16.70;67.50;;;;;;31638315;28;19924;-35
2022/04/19 13:41:57;;;;;;;;;;;16.80;68.30;;;;;;31655419;28;19928;-34
2022/04/19 13:57:01;;;;;;;;;;;16.60;70.00;;;;;;31600284;28;19925;-34
2022/04/19 14:12:04;;;;;;;;;;;16.80;68.50;;;;;;31574728;28;19925;-35
2022/04/19 14:27:05;;;;;;;;;;;16.90;67.90;;;;;;31575646;28;19931;-39
2022/04/19 14:42:06;;;;;;;;;;;16.90;67.50;;;;;;31615820;28;19930;-34
2022/04/19 14:57:07;;;;;;;;;;;17.20;68.30;;;;;;31611949;28;20027;-34
2022/04/19 15:12:09;;;;;;;;;;;17.40;65.60;;;;;;31511147;28;19931;-34
2022/04/19 15:27:10;;;;;;;;;;;17.30;64.50;;;;;;31506617;28;19956;-34
2022/04/19 15:42:12;;;;;;;;;;;17.30;64.60;;;;;;31498553;28;19968;-34
2022/04/19 15:57:13;;;;;;;;;;;17.30;65.30;;;;;;31543220;28;20019;-34
2022/04/19 16:12:14;;;;;;;;;;;17.40;65.90;;;;;;31529286;28;19924;-34
2022/04/19 16:27:15;;;;;;;;;;;17.30;65.20;;;;;;31573038;28;20010;-34
2022/04/19 16:42:16;;;;;;;;;;;17.60;65.10;;;;;;31517877;28;19947;-34
2022/04/19 16:57:18;;;;;;;;;;;17.40;66.70;;;;;;31481647;28;19936;-33
2022/04/19 17:12:20;;;;;;;;;;;17.40;66.00;;;;;;31538078;28;20347;-33
2022/04/19 17:27:21;;;;;;;;;;;17.20;67.60;;;;;;31638288;28;20014;-33
2022/04/19 17:42:22;;;;;;;;;;;17.20;66.80;;;;;;31623580;28;20379;-33
2022/04/19 17:57:23;;;;;;;;;;;17.00;67.30;;;;;;31571166;28;20428;-33
2022/04/19 18:12:26;;;;;;;;;;;17.00;68.20;;;;;;31275343;28;20444;-33
2022/04/19 18:27:27;;;;;;;;;;;16.90;68.70;;;;;;31289997;28;19925;-34
2022/04/19 18:42:30;;;;;;;;;;;16.80;68.90;;;;;;31296043;28;19972;-34
2022/04/19 18:57:33;;;;;;;;;;;17.10;67.70;;;;;;31286678;28;19932;-34
2022/04/19 19:12:35;;;;;;;;;;;16.70;70.50;;;;;;31283960;28;20405;-34
2022/04/19 19:27:36;;;;;;;;;;;16.70;72.40;;;;;;31282048;28;20263;-33
2022/04/19 19:42:38;;;;;;;;;;;16.60;73.80;;;;;;31258403;28;19960;-33
2022/04/19 19:57:39;;;;;;;;;;;16.60;75.90;;;;;;31321473;28;20835;-33
2022/04/19 20:12:41;;;;;;;;;;;16.60;78.50;;;;;;31289567;28;20406;-33
2022/04/19 20:27:42;;;;;;;;;;;16.60;80.40;;;;;;31235553;28;20034;-33
2022/04/19 20:42:43;;;;;;;;;;;16.60;82.40;;;;;;31234670;28;19968;-33
2022/04/19 20:57:44;;;;;;;;;;;16.50;83.70;;;;;;31234293;28;19951;-33
2022/04/19 21:12:45;;;;;;;;;;;16.50;84.90;;;;;;31232630;28;19932;-33
2022/04/19 21:27:47;;;;;;;;;;;16.50;86.20;;;;;;31232269;28;19925;-33
2022/04/19 21:42:48;;;;;;;;;;;16.50;87.10;;;;;;31231332;28;20374;-33
2022/04/19 21:57:49;;;;;;;;;;;16.40;88.00;;;;;;31249178;28;19940;-33
2022/04/19 22:12:50;;;;;;;;;;;16.50;88.10;;;;;;31250932;28;19925;-33
2022/04/19 22:27:51;;;;;;;;;;;16.40;89.00;;;;;;31248459;28;19975;-33
2022/04/19 22:42:52;;;;;;;;;;;16.30;89.30;;;;;;31318937;28;19967;-34
2022/04/19 22:57:53;;;;;;;;;;;16.30;89.30;;;;;;31382387;28;20299;-33
2022/04/19 23:12:54;;;;;;;;;;;16.20;89.50;;;;;;31379930;28;19929;-33
2022/04/19 23:27:59;;;;;;;;;;;16.30;89.30;;;;;;31377735;28;19979;-37
2022/04/19 23:43:00;;;;;;;;;;;16.20;89.50;;;;;;31377297;28;20024;-33
2022/04/19 23:58:02;;;;;;;;;;;16.30;89.10;;;;;;31261384;28;19925;-38
